createdAt,value
2022-12-06T00:01:34.248Z,89.45
2022-12-06T00:04:05.691Z,90.02
2022-12-06T00:06:39.190Z,94.40
2022-12-06T00:09:08.509Z,88.58
2022-12-06T00:11:37.564Z,89.31
2022-12-06T00:14:07.415Z,94.42
2022-12-06T00:16:36.116Z,87.76
2022-12-06T00:19:05.089Z,88.42
2022-12-06T00:21:36.288Z,89.19
2022-12-06T00:24:12.969Z,93.07
2022-12-06T00:26:43.818Z,94.23
2022-12-06T00:29:14.765Z,90.03
2022-12-06T00:31:43.124Z,92.87
2022-12-06T00:34:11.047Z,94.76
2022-12-06T00:36:41.267Z,93.31
2022-12-06T00:39:12.499Z,93.19
2022-12-06T00:41:40.944Z,94.11
2022-12-06T00:44:09.601Z,93.30
2022-12-06T00:46:38.248Z,94.95
2022-12-06T00:49:07.864Z,93.75
2022-12-06T00:51:37.841Z,94.45
2022-12-06T00:54:07.627Z,95.28
2022-12-06T00:56:37.431Z,95.27
2022-12-06T00:59:05.651Z,94.15
2022-12-06T01:01:36.584Z,95.83
2022-12-06T01:04:06.704Z,95.50
2022-12-06T01:06:38.653Z,95.02
2022-12-06T01:09:09.757Z,94.92
2022-12-06T01:11:38.754Z,92.56
2022-12-06T01:14:07.177Z,95.06
2022-12-06T01:16:35.534Z,95.00
2022-12-06T01:19:06.300Z,93.52
2022-12-06T01:21:34.374Z,91.85
2022-12-06T01:24:02.191Z,95.02
2022-12-06T01:26:32.924Z,94.64
2022-12-06T01:29:01.516Z,94.00
2022-12-06T01:31:37.117Z,92.01
2022-12-06T01:34:08.308Z,95.79
2022-12-06T01:36:36.237Z,95.84
2022-12-06T01:39:07.175Z,94.63
2022-12-06T01:41:35.557Z,95.36
2022-12-06T01:44:04.956Z,95.15
2022-12-06T01:46:51.791Z,93.53
2022-12-06T01:49:24.194Z,95.45
2022-12-06T01:52:03.453Z,95.24
2022-12-06T01:54:33.463Z,93.24
2022-12-06T01:57:04.616Z,95.77
2022-12-06T01:59:32.935Z,95.34
2022-12-06T02:02:01.237Z,95.58
2022-12-06T02:04:32.170Z,95.24
2022-12-06T02:07:01.916Z,95.11
2022-12-06T02:09:31.576Z,95.23
2022-12-06T02:11:59.407Z,94.84
2022-12-06T02:14:31.869Z,95.12
2022-12-06T02:16:59.895Z,95.20
2022-12-06T02:19:46.079Z,94.44
2022-12-06T02:22:30.558Z,94.44
2022-12-06T02:25:12.173Z,94.84
2022-12-06T02:28:43.844Z,94.72
2022-12-06T02:31:23.365Z,94.84
2022-12-06T02:34:06.047Z,94.71
2022-12-06T02:36:56.309Z,93.16
2022-12-06T02:39:41.385Z,95.15
2022-12-06T02:42:14.348Z,93.84
2022-12-06T02:44:52.386Z,94.78
2022-12-06T02:47:24.515Z,93.75
2022-12-06T02:49:55.320Z,95.02
2022-12-06T02:52:27.545Z,92.55
2022-12-06T02:54:58.930Z,93.22
2022-12-06T02:57:46.123Z,93.59
2022-12-06T03:00:35.670Z,93.62
2022-12-06T03:03:36.001Z,89.37
2022-12-06T03:06:04.122Z,95.92
2022-12-06T03:09:06.119Z,95.84
2022-12-06T03:11:50.348Z,94.12
2022-12-06T03:14:27.482Z,90.79
2022-12-06T03:17:04.859Z,90.01
2022-12-06T03:19:33.927Z,89.90
2022-12-06T03:22:07.140Z,92.67
2022-12-06T03:24:40.107Z,87.46
2022-12-06T03:27:12.581Z,93.28
2022-12-06T03:29:53.363Z,88.97
2022-12-06T03:32:25.263Z,90.39
2022-12-06T03:34:57.171Z,88.25
2022-12-06T03:37:28.380Z,92.14
2022-12-06T03:40:10.349Z,89.78
2022-12-06T03:42:40.476Z,90.49
2022-12-06T03:45:11.277Z,90.68
2022-12-06T03:47:49.515Z,88.81
2022-12-06T03:50:23.797Z,88.45
2022-12-06T03:52:53.156Z,93.25
2022-12-06T03:55:21.066Z,88.38
2022-12-06T03:57:48.831Z,89.22
2022-12-06T04:00:17.336Z,89.01
2022-12-06T04:02:45.746Z,88.94
2022-12-06T04:05:14.034Z,88.86
2022-12-06T04:07:41.851Z,88.79
2022-12-06T04:10:10.341Z,89.35
2022-12-06T04:12:56.568Z,88.47
2022-12-06T04:15:24.802Z,92.63
2022-12-06T04:18:11.071Z,89.97
2022-12-06T04:21:14.228Z,88.13
2022-12-06T04:23:44.520Z,90.25
2022-12-06T04:26:16.249Z,91.06
2022-12-06T04:29:02.543Z,91.10
2022-12-06T04:31:49.995Z,90.66
2022-12-06T04:34:36.410Z,91.52
2022-12-06T04:37:23.959Z,90.03
2022-12-06T04:39:51.849Z,89.51
2022-12-06T04:42:39.052Z,88.89
2022-12-06T04:45:07.999Z,87.48
2022-12-06T04:47:36.269Z,93.49
2022-12-06T04:50:04.451Z,92.30
2022-12-06T04:52:35.726Z,91.67
2022-12-06T04:55:05.618Z,93.44
2022-12-06T04:57:33.524Z,93.62
2022-12-06T05:00:01.634Z,92.40
2022-12-06T05:02:31.924Z,92.90
2022-12-06T05:04:59.786Z,95.84
2022-12-06T05:07:27.702Z,95.36
2022-12-06T05:09:55.932Z,93.54
2022-12-06T05:12:23.781Z,94.98
2022-12-06T05:14:51.581Z,92.87
2022-12-06T05:17:19.791Z,95.08
2022-12-06T05:19:47.557Z,95.14
2022-12-06T05:22:15.333Z,95.17
2022-12-06T05:24:43.624Z,93.75
2022-12-06T05:27:11.474Z,93.52
2022-12-06T05:29:42.641Z,94.69
2022-12-06T05:32:10.903Z,94.24
2022-12-06T05:34:38.662Z,94.35
2022-12-06T05:37:06.340Z,93.90
2022-12-06T05:39:34.539Z,93.93
2022-12-06T05:42:03.069Z,92.67
2022-12-06T05:44:30.901Z,94.98
2022-12-06T05:46:59.162Z,94.41
2022-12-06T05:49:27.694Z,93.34
2022-12-06T05:51:56.910Z,94.14
2022-12-06T05:54:28.214Z,93.84
2022-12-06T05:56:56.013Z,92.08
2022-12-06T05:59:23.745Z,92.74
2022-12-06T06:01:51.869Z,94.74
2022-12-06T06:04:20.400Z,93.67
2022-12-06T06:06:48.091Z,93.59
2022-12-06T06:09:15.887Z,94.26
2022-12-06T06:11:47.091Z,92.92
2022-12-06T06:14:15.222Z,93.41
2022-12-06T06:16:43.053Z,94.56
2022-12-06T06:19:11.455Z,93.89
2022-12-06T06:21:39.767Z,93.40
2022-12-06T06:24:07.965Z,92.42
2022-12-06T06:26:36.199Z,95.03
2022-12-06T06:29:06.145Z,93.50
2022-12-06T06:31:33.998Z,93.27
2022-12-06T06:34:02.443Z,94.59
2022-12-06T06:36:30.326Z,94.78
2022-12-06T06:39:04.457Z,94.99
2022-12-06T06:41:33.198Z,93.37
2022-12-06T06:44:01.125Z,94.80
2022-12-06T06:46:29.048Z,95.15
2022-12-06T06:48:57.534Z,94.56
2022-12-06T06:51:25.626Z,94.32
2022-12-06T06:53:53.455Z,93.60
2022-12-06T06:56:21.623Z,93.47
2022-12-06T06:58:49.423Z,93.53
2022-12-06T07:01:20.934Z,92.51
2022-12-06T07:03:49.764Z,94.30
2022-12-06T07:06:17.957Z,93.10
2022-12-06T07:08:46.991Z,94.30
2022-12-06T07:11:15.819Z,93.59
2022-12-06T07:13:51.106Z,93.68
2022-12-06T07:16:21.882Z,93.36
2022-12-06T07:18:49.904Z,90.58
2022-12-06T07:21:18.148Z,92.60
2022-12-06T07:23:46.923Z,92.34
2022-12-06T07:26:21.449Z,91.99
2022-12-06T07:28:51.569Z,91.87
2022-12-06T07:31:27.826Z,92.58
2022-12-06T07:33:58.544Z,86.82
2022-12-06T07:36:29.616Z,91.71
2022-12-06T07:38:59.441Z,88.47
2022-12-06T07:41:48.348Z,91.18
2022-12-06T07:44:37.245Z,86.19
2022-12-06T07:47:05.737Z,83.62
2022-12-06T07:49:34.212Z,82.75
2022-12-06T07:52:03.676Z,85.88
2022-12-06T07:54:31.548Z,89.01
2022-12-06T07:56:59.697Z,86.63
2022-12-06T07:59:30.663Z,85.62
2022-12-06T08:02:01.373Z,83.80
2022-12-06T08:04:29.781Z,82.90
2022-12-06T08:06:58.178Z,83.54
2022-12-06T08:09:26.371Z,81.10
2022-12-06T08:11:54.769Z,80.56
2022-12-06T08:14:23.540Z,84.58
2022-12-06T08:16:52.462Z,82.36
2022-12-06T08:19:20.788Z,82.08
2022-12-06T08:21:49.008Z,82.46
2022-12-06T08:24:18.421Z,82.14
2022-12-06T08:26:47.275Z,83.52
2022-12-06T08:29:15.329Z,82.61
2022-12-06T08:31:44.475Z,85.75
2022-12-06T08:34:14.065Z,86.74
2022-12-06T08:36:42.535Z,80.52
2022-12-06T08:39:12.899Z,85.56
2022-12-06T08:41:56.226Z,85.35
2022-12-06T08:44:29.116Z,80.20
2022-12-06T08:46:59.109Z,80.49
2022-12-06T08:49:28.479Z,78.57
2022-12-06T08:51:56.712Z,80.89
2022-12-06T08:54:25.708Z,78.05
2022-12-06T08:56:54.190Z,77.85
2022-12-06T08:59:22.220Z,80.36
2022-12-06T09:01:50.535Z,80.09
2022-12-06T09:04:21.546Z,76.15
2022-12-06T09:06:49.976Z,76.59
2022-12-06T09:09:21.503Z,77.39
2022-12-06T09:11:50.488Z,76.29
2022-12-06T09:14:21.949Z,76.23
2022-12-06T09:16:51.849Z,74.89
2022-12-06T09:19:20.704Z,75.95
2022-12-06T09:21:51.377Z,78.23
2022-12-06T09:24:19.956Z,77.87
2022-12-06T09:26:48.910Z,73.88
2022-12-06T09:29:18.330Z,76.04
2022-12-06T09:31:46.129Z,77.36
2022-12-06T09:34:14.906Z,77.32
2022-12-06T09:36:51.707Z,75.23
2022-12-06T09:39:47.410Z,77.73
2022-12-06T09:43:03.059Z,74.54
2022-12-06T09:45:48.022Z,79.85
2022-12-06T09:48:48.915Z,75.62
2022-12-06T09:51:46.609Z,80.43
2022-12-06T09:54:23.179Z,77.52
2022-12-06T09:57:02.726Z,74.41
2022-12-06T09:59:57.795Z,80.20
2022-12-06T10:02:38.029Z,79.63
2022-12-06T10:05:37.140Z,83.91
2022-12-06T10:08:26.754Z,79.04
2022-12-06T10:11:30.614Z,81.79
2022-12-06T10:14:27.289Z,78.34
2022-12-06T10:17:00.163Z,85.37
2022-12-06T10:19:35.594Z,90.74
2022-12-06T10:22:06.706Z,90.18
2022-12-06T10:24:56.227Z,90.96
2022-12-06T10:27:42.869Z,84.59
2022-12-06T10:30:13.323Z,91.96
2022-12-06T10:32:55.032Z,91.87
2022-12-06T10:35:48.047Z,91.42
2022-12-06T10:38:45.064Z,91.68
2022-12-06T10:41:27.308Z,91.29
2022-12-06T10:44:15.277Z,91.53
2022-12-06T10:47:04.368Z,90.35
2022-12-06T10:49:50.962Z,89.84
2022-12-06T10:52:25.434Z,91.31
2022-12-06T10:55:04.940Z,91.22
2022-12-06T10:57:37.773Z,89.53
2022-12-06T11:00:17.844Z,89.40
2022-12-06T11:02:53.960Z,89.90
2022-12-06T11:05:49.349Z,87.18
2022-12-06T11:08:34.352Z,86.23
2022-12-06T11:11:05.490Z,88.00
2022-12-06T11:13:42.550Z,86.07
2022-12-06T11:16:19.664Z,85.27
2022-12-06T11:18:48.825Z,86.71
2022-12-06T11:21:46.787Z,84.18
2022-12-06T11:24:29.583Z,85.52
2022-12-06T11:27:16.407Z,85.93
2022-12-06T11:29:49.341Z,83.97
2022-12-06T11:32:19.073Z,83.61
2022-12-06T11:34:50.987Z,84.85
2022-12-06T11:37:22.289Z,86.35
2022-12-06T11:39:59.684Z,84.25
2022-12-06T11:42:28.647Z,84.17
2022-12-06T11:45:08.787Z,83.28
2022-12-06T11:47:37.192Z,84.86
2022-12-06T11:50:17.136Z,81.90
2022-12-06T11:53:18.131Z,80.58
2022-12-06T11:55:51.217Z,86.55
2022-12-06T11:58:33.180Z,82.24
2022-12-06T12:01:05.302Z,85.57
2022-12-06T12:03:36.667Z,82.78
2022-12-06T12:06:17.695Z,84.94
2022-12-06T12:09:08.112Z,83.09
2022-12-06T12:11:40.486Z,84.44
2022-12-06T12:14:27.316Z,81.74
2022-12-06T12:17:01.576Z,82.61
2022-12-06T12:19:37.022Z,84.13
2022-12-06T12:22:21.815Z,83.17
2022-12-06T12:27:39.355Z,88.66
2022-12-06T12:30:20.853Z,88.22
2022-12-06T12:32:51.054Z,90.75
2022-12-06T12:35:22.319Z,91.29
2022-12-06T12:37:54.332Z,91.39
2022-12-06T12:40:28.109Z,91.92
2022-12-06T12:43:03.245Z,91.21
2022-12-06T12:45:32.092Z,91.61
2022-12-06T12:48:20.765Z,91.53
2022-12-06T12:50:56.647Z,90.58
2022-12-06T12:53:33.306Z,91.36
2022-12-06T12:59:02.992Z,91.94
2022-12-06T13:01:59.714Z,91.49
2022-12-06T13:04:27.446Z,91.18
2022-12-06T13:07:07.743Z,91.66
2022-12-06T13:09:38.059Z,92.01
2022-12-06T13:12:13.194Z,91.81
2022-12-06T13:14:51.283Z,91.02
2022-12-06T13:17:20.903Z,92.38
2022-12-06T13:19:53.469Z,90.84
2022-12-06T13:22:32.914Z,91.30
2022-12-06T13:25:08.517Z,90.90
2022-12-06T13:27:51.654Z,91.17
2022-12-06T13:30:25.599Z,90.19
2022-12-06T13:32:58.990Z,88.91
2022-12-06T13:35:31.413Z,92.89
2022-12-06T13:38:03.367Z,92.68
2022-12-06T13:40:33.890Z,92.06
2022-12-06T13:43:07.244Z,91.85
2022-12-06T13:45:48.826Z,92.08
2022-12-06T13:48:26.305Z,92.51
2022-12-06T13:51:24.122Z,91.77
2022-12-06T13:54:07.121Z,91.30
2022-12-06T13:56:34.884Z,91.44
2022-12-06T13:59:28.772Z,91.52
2022-12-06T14:02:01.156Z,91.83
2022-12-06T14:07:03.020Z,93.13
2022-12-06T14:09:39.393Z,93.29
2022-12-06T14:12:28.101Z,92.18
2022-12-06T14:15:01.588Z,91.70
2022-12-06T14:20:32.569Z,91.92
2022-12-06T14:23:00.420Z,92.37
2022-12-06T14:25:29.984Z,91.95
2022-12-06T14:28:07.911Z,92.55
2022-12-06T14:30:35.806Z,92.09
2022-12-06T14:33:23.121Z,92.48
2022-12-06T14:35:53.305Z,92.27
2022-12-06T14:38:30.797Z,92.25
2022-12-06T14:41:17.437Z,92.18
2022-12-06T14:43:48.911Z,92.48
2022-12-06T14:46:20.512Z,92.39
2022-12-06T14:49:10.033Z,92.55
2022-12-06T14:51:42.921Z,92.14
2022-12-06T14:54:36.892Z,92.42
2022-12-06T14:57:04.971Z,92.14
2022-12-06T15:00:12.868Z,91.57
2022-12-06T15:02:27.116Z,92.16
2022-12-06T15:04:56.009Z,91.42
2022-12-06T15:07:42.231Z,91.19
2022-12-06T15:10:25.659Z,91.65
2022-12-06T15:12:56.434Z,92.06
2022-12-06T15:15:46.286Z,91.93
2022-12-06T15:18:25.046Z,91.71
2022-12-06T15:20:54.363Z,91.74
2022-12-06T15:23:39.123Z,92.00
2022-12-06T15:26:12.089Z,90.43
2022-12-06T15:28:40.661Z,91.94
2022-12-06T15:31:28.149Z,91.15
2022-12-06T15:33:57.253Z,92.13
2022-12-06T15:36:29.980Z,92.27
2022-12-06T15:38:58.229Z,92.71
2022-12-06T15:41:28.204Z,92.21
2022-12-06T15:44:00.471Z,92.30
2022-12-06T15:46:30.212Z,92.43
2022-12-06T15:48:58.161Z,92.46
2022-12-06T15:51:27.538Z,91.78
2022-12-06T15:53:57.616Z,92.51
2022-12-06T15:56:29.483Z,92.31
2022-12-06T15:58:57.500Z,92.82
2022-12-06T16:01:33.168Z,92.20
2022-12-06T16:04:01.857Z,91.94
2022-12-06T16:06:30.077Z,91.68
2022-12-06T16:08:57.946Z,92.56
2022-12-06T16:11:27.152Z,92.65
2022-12-06T16:13:55.048Z,91.54
2022-12-06T16:16:23.580Z,91.98
2022-12-06T16:18:52.129Z,91.63
2022-12-06T16:21:31.836Z,91.52
2022-12-06T16:24:16.729Z,92.80
2022-12-06T16:26:46.096Z,91.85
2022-12-06T16:29:25.298Z,92.79
2022-12-06T16:31:54.437Z,91.56
2022-12-06T16:34:23.142Z,92.00
2022-12-06T16:37:11.216Z,91.76
2022-12-06T16:39:39.416Z,92.37
2022-12-06T16:42:07.088Z,92.31
2022-12-06T16:44:51.653Z,92.02
2022-12-06T16:49:58.518Z,91.00
2022-12-06T16:52:27.158Z,92.25
2022-12-06T16:54:55.128Z,91.59
2022-12-06T16:57:22.992Z,91.02
2022-12-06T16:59:51.547Z,89.64
2022-12-06T17:02:31.269Z,90.17
2022-12-06T17:05:02.504Z,91.30
2022-12-06T17:07:31.257Z,91.17
2022-12-06T17:10:00.575Z,91.36
2022-12-06T17:12:28.682Z,88.19
2022-12-06T17:14:56.537Z,91.24
2022-12-06T17:17:26.448Z,91.36
2022-12-06T17:19:56.455Z,91.41
2022-12-06T17:22:25.207Z,91.31
2022-12-06T17:24:53.110Z,91.83
2022-12-06T17:27:21.039Z,91.79
2022-12-06T17:29:49.290Z,90.44
2022-12-06T17:32:20.790Z,92.32
2022-12-06T17:34:48.625Z,91.93
2022-12-06T17:37:18.928Z,91.28
2022-12-06T17:39:49.122Z,91.07
2022-12-06T17:42:36.846Z,90.73
2022-12-06T17:45:05.927Z,90.93
2022-12-06T17:47:34.791Z,91.47
2022-12-06T17:50:11.301Z,91.76
2022-12-06T17:52:43.556Z,91.10
2022-12-06T17:55:14.974Z,91.63
2022-12-06T17:57:43.369Z,91.28
2022-12-06T18:00:11.640Z,91.76
2022-12-06T18:02:40.071Z,92.36
2022-12-06T18:05:08.383Z,92.81
2022-12-06T18:07:36.392Z,92.05
2022-12-06T18:10:05.130Z,92.94
2022-12-06T18:12:34.976Z,92.52
2022-12-06T18:15:03.190Z,92.30
2022-12-06T18:17:31.641Z,91.89
2022-12-06T18:20:00.684Z,91.04
2022-12-06T18:22:28.805Z,92.28
2022-12-06T18:24:57.394Z,91.64
2022-12-06T18:27:25.282Z,91.24
2022-12-06T18:29:53.199Z,91.67
2022-12-06T18:32:21.737Z,91.56
2022-12-06T18:34:49.724Z,92.43
2022-12-06T18:37:17.539Z,92.23
2022-12-06T18:39:45.715Z,92.13
2022-12-06T18:42:13.602Z,91.81
2022-12-06T18:44:41.519Z,92.31
2022-12-06T18:47:10.006Z,91.43
2022-12-06T18:49:44.443Z,92.34
2022-12-06T18:52:17.008Z,92.10
2022-12-06T18:54:48.182Z,92.06
2022-12-06T18:57:16.398Z,92.41
2022-12-06T18:59:44.272Z,91.62
2022-12-06T19:02:13.046Z,91.05
2022-12-06T19:04:41.356Z,92.34
2022-12-06T19:07:09.236Z,91.20
2022-12-06T19:09:37.166Z,91.98
2022-12-06T19:12:05.561Z,91.96
2022-12-06T19:14:33.716Z,91.27
2022-12-06T19:17:01.743Z,91.89
2022-12-06T19:19:30.404Z,91.83
2022-12-06T19:21:59.007Z,91.64
2022-12-06T19:24:29.794Z,91.32
2022-12-06T19:27:00.637Z,91.13
2022-12-06T19:29:29.780Z,91.34
2022-12-06T19:31:58.309Z,91.48
2022-12-06T19:34:27.672Z,91.47
2022-12-06T19:36:57.265Z,91.42
2022-12-06T19:39:26.476Z,91.45
2022-12-06T19:42:12.977Z,91.46
2022-12-06T19:44:41.273Z,91.23
2022-12-06T19:47:09.206Z,91.14
2022-12-06T19:49:37.070Z,91.09
2022-12-06T19:52:05.600Z,91.75
2022-12-06T19:54:37.585Z,91.89
2022-12-06T19:57:06.128Z,91.96
2022-12-06T19:59:36.428Z,92.33
2022-12-06T20:02:04.716Z,91.51
2022-12-06T20:04:36.146Z,92.45
2022-12-06T20:07:05.346Z,92.82
2022-12-06T20:09:34.360Z,92.29
2022-12-06T20:12:05.578Z,92.00
2022-12-06T20:14:46.080Z,91.69
2022-12-06T20:17:16.170Z,91.49
2022-12-06T20:19:49.425Z,91.92
2022-12-06T20:22:18.074Z,91.49
2022-12-06T20:24:46.738Z,90.17
2022-12-06T20:27:14.643Z,91.77
2022-12-06T20:29:42.692Z,91.75
2022-12-06T20:32:11.664Z,91.33
2022-12-06T20:34:39.700Z,91.73
2022-12-06T20:37:09.397Z,90.69
2022-12-06T20:39:37.610Z,90.99
2022-12-06T20:42:07.317Z,92.58
2022-12-06T20:44:35.979Z,92.07
2022-12-06T20:47:04.531Z,92.09
2022-12-06T20:49:32.417Z,92.72
2022-12-06T20:52:02.370Z,92.09
2022-12-06T20:54:30.664Z,92.08
2022-12-06T20:56:58.733Z,92.18
2022-12-06T20:59:27.203Z,92.17
2022-12-06T21:01:58.601Z,91.84
2022-12-06T21:04:27.171Z,91.96
2022-12-06T21:06:55.535Z,92.35
2022-12-06T21:09:24.263Z,92.17
2022-12-06T21:11:51.957Z,92.16
2022-12-06T21:14:19.710Z,92.26
2022-12-06T21:16:48.165Z,91.42
2022-12-06T21:19:18.176Z,92.09
2022-12-06T21:21:51.666Z,91.56
2022-12-06T21:24:23.078Z,92.15
2022-12-06T21:26:50.847Z,91.77
2022-12-06T21:29:30.167Z,91.27
2022-12-06T21:32:01.779Z,91.64
2022-12-06T21:34:30.153Z,91.60
2022-12-06T21:36:58.096Z,91.12
2022-12-06T21:39:26.025Z,91.64
2022-12-06T21:41:54.967Z,91.37
2022-12-06T21:44:22.917Z,91.65
2022-12-06T21:46:52.602Z,91.29
2022-12-06T21:49:21.011Z,91.30
2022-12-06T21:51:48.855Z,91.78
2022-12-06T21:54:16.717Z,91.89
2022-12-06T21:56:44.845Z,91.96
2022-12-06T21:59:15.441Z,91.91
2022-12-06T22:01:43.384Z,91.48
2022-12-06T22:04:11.633Z,91.44
2022-12-06T22:06:39.469Z,91.58
2022-12-06T22:09:10.755Z,91.55
2022-12-06T22:11:40.255Z,91.68
2022-12-06T22:14:08.899Z,91.85
2022-12-06T22:16:36.923Z,91.78
2022-12-06T22:19:05.311Z,91.72
2022-12-06T22:21:33.615Z,91.76
2022-12-06T22:24:01.615Z,92.03
2022-12-06T22:26:31.545Z,91.99
2022-12-06T22:29:00.498Z,91.95
2022-12-06T22:31:33.764Z,91.03
2022-12-06T22:34:02.729Z,92.22
2022-12-06T22:36:32.099Z,92.01
2022-12-06T22:39:02.663Z,91.61
2022-12-06T22:41:31.851Z,91.72
2022-12-06T22:44:02.730Z,91.16
2022-12-06T22:46:32.138Z,91.70
2022-12-06T22:49:04.222Z,91.38
2022-12-06T22:51:38.203Z,91.72
2022-12-06T22:54:13.582Z,91.09
2022-12-06T22:56:48.928Z,91.67
2022-12-06T22:59:17.919Z,91.69
2022-12-06T23:01:49.425Z,91.60
2022-12-06T23:04:17.328Z,91.44
2022-12-06T23:06:48.383Z,91.86
2022-12-06T23:09:16.917Z,91.58
2022-12-06T23:11:45.098Z,91.12
2022-12-06T23:14:13.218Z,91.78
2022-12-06T23:16:43.953Z,91.58
2022-12-06T23:19:11.856Z,90.78
2022-12-06T23:21:41.158Z,91.95
2022-12-06T23:24:12.528Z,91.34
2022-12-06T23:26:43.376Z,91.72
2022-12-06T23:29:11.940Z,91.33
2022-12-06T23:31:42.843Z,91.34
2022-12-06T23:34:18.664Z,91.37
2022-12-06T23:36:46.643Z,91.07
2022-12-06T23:39:15.128Z,91.28
2022-12-06T23:41:43.028Z,90.70
2022-12-06T23:44:14.500Z,91.30
2022-12-06T23:46:46.284Z,91.02
2022-12-06T23:49:23.384Z,91.15
2022-12-06T23:51:54.813Z,90.64
2022-12-06T23:54:22.642Z,90.52
2022-12-06T23:56:50.422Z,90.82
2022-12-06T23:59:19.165Z,89.84
